METAR stanice u blizini

 

LYBE - Beograd / Surčin, Srbija
Ažurirano: 20/04/2019 04:30
Vedro
Vedro
 Pravac vetra SSI
Vetar: SSI 11 km/h
Temperatura: 6°C
Osećaj hladnoće: 4°C
Tačka rose: -1°C
Vlažnost: 61%
Pritisak: 1026 hPa
Pregled: Vedro
Vidljivost: greater than 10 km
2019/04/20 02:30 LYBE 200230Z 02006KT CAVOK 06/M01 Q1026 NOSIG
LYBT - Beograd / Batajnica, Srbija
Ažurirano: 20/04/2019 04:30
Vedro
Vedro
 Pravac vetra SSZ
Vetar: SSZ 6 km/h
Temperatura: 4°C
Tačka rose: -1°C
Vlažnost: 70%
Pritisak: 1026 hPa
Pregled: Vedro
Vidljivost: greater than 10 km
2019/04/20 02:30 LYBT 200230Z 34003KT CAVOK 04/M01 Q1026 NOSIG
LYVR - Vršac, Srbija
Ažurirano: 20/04/2019 04:30
Vedro
Vedro
 Pravac vetra JI
Vetar: JI 22 km/h
Temperatura: 12°C
Tačka rose: 2°C
Vlažnost: 51%
Pritisak: 1026 hPa
Pregled: Vedro
Vidljivost: greater than 10 km
2019/04/20 02:30 LYVR 200230Z 13012KT 110V170 CAVOK 12/02 Q1026 NOSIG
 
LYKV - Lađevci, Srbija
Ažurirano: 20/04/2019 04:30
Vedro
Vedro
 Pravac vetra varies
Vetar: varies 2 km/h
Temperatura: 2°C
Tačka rose: 0°C
Vlažnost: 87%
Pritisak: 1025 hPa
Pregled: Vedro
Vidljivost: greater than 10 km
2019/04/20 02:30 LYKV 200230Z VRB01KT CAVOK 02/00 Q1025 NOSIG
LYNI - Niš, Srbija
Ažurirano: 20/04/2019 04:30
Vedro
Vedro
 Pravac vetra Z
Vetar: Z 6 km/h
Temperatura: 6°C
Tačka rose: 3°C
Vlažnost: 81%
Pritisak: 1025 hPa
Pregled: Vedro
Vidljivost: greater than 10 km
2019/04/20 02:30 LYNI 200230Z 28003KT 250V310 CAVOK 06/03 Q1025 NOSIG
BKPR - Priština, Srbija
Ažurirano: 20/04/2019 04:30
Vedro
Vedro
 Pravac vetra varies
Vetar: varies 2 km/h
Temperatura: 3°C
Tačka rose: -1°C
Vlažnost: 75%
Pritisak: 1024 hPa
Pregled: Vedro
Vidljivost: greater than 10 km
2019/04/20 02:30 BKPR 200230Z VRB01KT CAVOK 03/M01 Q1024 NOSIG
 
LHPP - Pecs / Pogany, Hungary
Ažurirano: 19/04/2019 18:45
NOT Current
Vedro
Vedro
 Pravac vetra S
Vetar: S 15 km/h
Temperatura: 19°C
Tačka rose: 3°C
Vlažnost: 35%
Pritisak: 1027 hPa
Pregled: Vedro
Vidljivost: greater than 10 km
2019/04/19 16:45 LHPP 191645Z 35008KT CAVOK 19/03 Q1027
LHUD - Szeged, Hungary
Ažurirano: 20/04/2019 01:45
NOT Current
Vedro
Vedro
 Pravac vetra S
Vetar: S 7 km/h
Temperatura: 8°C
Osećaj hladnoće: 7°C
Tačka rose: -2°C
Vlažnost: 50%
Pritisak: 1028 hPa
Pregled: Vedro
Vidljivost: greater than 10 km
2019/04/19 23:45 LHUD 192345Z 35004KT CAVOK 08/M02 Q1028
LRTR - Timisoara, Romania
Ažurirano: 20/04/2019 04:30
Vedro
Vedro
 Pravac vetra I
Vetar: I 19 km/h
Temperatura: 9°C
Osećaj hladnoće: 6°C
Tačka rose: 0°C
Vlažnost: 54%
Pritisak: 1026 hPa
Pregled: Vedro
Vidljivost: greater than 10 km
2019/04/20 02:30 LRTR 200230Z 08010KT CAVOK 09/M00 Q1026 NOSIG
 
LRCV - Craiova, Romania
Ažurirano: 20/04/2019 04:30
Few Clouds
Few Clouds
 Pravac vetra S
Vetar: S 4 km/h
Temperatura: 4°C
Tačka rose: 3°C
Vlažnost: 93%
Pritisak: 1026 hPa
Oblaci: Few Clouds
Vidljivost: 10 km
Cloud details: Few Clouds 1981 m
2019/04/20 02:30 LRCV 200230Z AUTO 01002KT 9999 FEW065/// 04/03 Q1026
LBSF - Sofia, Bulgaria
Ažurirano: 20/04/2019 04:30
Mostly Cloudy
Mostly Cloudy
 Pravac vetra SSZ
Vetar: SSZ 6 km/h
Temperatura: 6°C
Tačka rose: 5°C
Vlažnost: 93%
Pritisak: 1024 hPa
Oblaci: Mostly Cloudy
Vidljivost: 10 km
Cloud details: Mostly Cloudy 2012 m
2019/04/20 02:30 LBSF 200230Z 33003KT 9999 BKN066 06/05 Q1024 TEMPO 5000 BR SCT010
LWSK - Skoplje, Makedonija
Ažurirano: 20/04/2019 04:30
Vedro
Vedro
 Pravac vetra I
Vetar: I 4 km/h
Temperatura: 6°C
Tačka rose: 3°C
Vlažnost: 81%
Pritisak: 1024 hPa
Pregled: Vedro
Vidljivost: greater than 10 km
2019/04/20 02:30 LWSK 200230Z 08002KT CAVOK 06/03 Q1024 NOSIG
 
LYPG - Podgorica, Crna Gora
Ažurirano: 20/04/2019 04:30
Vedro
Vedro
 Pravac vetra S
Vetar: S 17 km/h
Temperatura: 12°C
Tačka rose: 2°C
Vlažnost: 51%
Pritisak: 1024 hPa
Pregled: Vedro
Vidljivost: greater than 10 km
2019/04/20 02:30 LYPG 200230Z 01009KT CAVOK 12/02 Q1024 NOSIG
LQSA - Sarajevo, Bosna i Hercegovina
Ažurirano: 20/04/2019 04:00
Vedro
Vedro
 Pravac vetra varies
Vetar: varies 2 km/h
Temperatura: 3°C
Tačka rose: 3°C
Vlažnost: 100%
Pritisak: 1027 hPa
Pregled: Vedro
Vidljivost: greater than 10 km
2019/04/20 02:00 LQSA 200200Z VRB01KT CAVOK 03/03 Q1027
LDOS - Osijek, Hrvatksa
Ažurirano: 20/04/2019 04:30
Vedro
Vedro
 Pravac vetra S
Vetar: S 13 km/h
Temperatura: 7°C
Osećaj hladnoće: 5°C
Tačka rose: 0°C
Vlažnost: 61%
Pritisak: 1027 hPa
Pregled: Vedro
Vidljivost: greater than 10 km
2019/04/20 02:30 LDOS 200230Z 01007KT CAVOK 07/00 Q1027